createdAt,value
2022-12-05T00:00:30.178Z,1014.40
2022-12-05T00:01:00.803Z,1014.44
2022-12-05T00:01:31.334Z,1014.48
2022-12-05T00:02:02.069Z,1014.51
2022-12-05T00:02:32.694Z,1014.56
2022-12-05T00:03:03.273Z,1014.59
2022-12-05T00:03:33.817Z,1014.62
2022-12-05T00:04:04.446Z,1014.63
2022-12-05T00:04:35.134Z,1014.63
2022-12-05T00:05:05.710Z,1014.63
2022-12-05T00:05:36.248Z,1014.61
2022-12-05T00:06:06.806Z,1014.58
2022-12-05T00:06:37.340Z,1014.56
2022-12-05T00:07:07.902Z,1014.54
2022-12-05T00:07:38.484Z,1014.53
2022-12-05T00:08:09.111Z,1014.53
2022-12-05T00:08:39.707Z,1014.50
2022-12-05T00:09:10.292Z,1014.48
2022-12-05T00:09:40.880Z,1014.45
2022-12-05T00:10:11.472Z,1014.42
2022-12-05T00:10:42.044Z,1014.41
2022-12-05T00:11:12.632Z,1014.43
2022-12-05T00:11:43.194Z,1014.41
2022-12-05T00:12:13.775Z,1014.43
2022-12-05T00:12:44.365Z,1014.43
2022-12-05T00:13:14.937Z,1014.44
2022-12-05T00:13:45.523Z,1014.49
2022-12-05T00:14:16.091Z,1014.51
2022-12-05T00:14:46.671Z,1014.52
2022-12-05T00:15:17.241Z,1014.54
2022-12-05T00:15:47.837Z,1014.56
2022-12-05T00:16:18.485Z,1014.57
2022-12-05T00:16:49.194Z,1014.56
2022-12-05T00:17:19.794Z,1014.56
2022-12-05T00:17:50.360Z,1014.56
2022-12-05T00:18:20.943Z,1014.53
2022-12-05T00:18:51.538Z,1014.51
2022-12-05T00:19:22.134Z,1014.51
2022-12-05T00:19:56.732Z,1014.50
2022-12-05T00:20:23.458Z,1014.49
2022-12-05T00:20:54.028Z,1014.50
2022-12-05T00:21:24.626Z,1014.51
2022-12-05T00:21:55.187Z,1014.53
2022-12-05T00:22:25.756Z,1014.57
2022-12-05T00:22:56.319Z,1014.60
2022-12-05T00:23:26.896Z,1014.65
2022-12-05T00:23:57.443Z,1014.67
2022-12-05T00:24:28.023Z,1014.70
2022-12-05T00:24:58.595Z,1014.72
2022-12-05T00:25:29.228Z,1014.73
2022-12-05T00:25:59.764Z,1014.72
2022-12-05T00:26:30.343Z,1014.74
2022-12-05T00:27:00.911Z,1014.76
2022-12-05T00:27:31.482Z,1014.75
2022-12-05T00:28:02.071Z,1014.73
2022-12-05T00:28:32.626Z,1014.69
2022-12-05T00:29:03.225Z,1014.67
2022-12-05T00:29:33.812Z,1014.63
2022-12-05T00:30:04.483Z,1014.61
2022-12-05T00:30:35.020Z,1014.60
2022-12-05T00:31:05.616Z,1014.60
2022-12-05T00:31:36.292Z,1014.60
2022-12-05T00:32:06.956Z,1014.61
2022-12-05T00:32:37.562Z,1014.62
2022-12-05T00:33:08.122Z,1014.62
2022-12-05T00:33:38.698Z,1014.61
2022-12-05T00:34:09.263Z,1014.61
2022-12-05T00:34:39.821Z,1014.61
2022-12-05T00:35:10.377Z,1014.61
2022-12-05T00:35:40.948Z,1014.60
2022-12-05T00:36:11.511Z,1014.59
2022-12-05T00:36:42.099Z,1014.60
2022-12-05T00:37:12.657Z,1014.61
2022-12-05T00:37:43.216Z,1014.62
2022-12-05T00:38:13.793Z,1014.62
2022-12-05T00:38:44.345Z,1014.62
2022-12-05T00:39:14.902Z,1014.62
2022-12-05T00:39:45.480Z,1014.62
2022-12-05T00:40:16.046Z,1014.61
2022-12-05T00:40:46.616Z,1014.60
2022-12-05T00:41:17.178Z,1014.58
2022-12-05T00:41:47.762Z,1014.57
2022-12-05T00:42:18.343Z,1014.56
2022-12-05T00:42:52.313Z,1014.54
2022-12-05T00:43:19.483Z,1014.53
2022-12-05T00:43:50.061Z,1014.52
2022-12-05T00:44:20.641Z,1014.51
2022-12-05T00:44:51.247Z,1014.51
2022-12-05T00:45:21.827Z,1014.52
2022-12-05T00:45:52.500Z,1014.52
2022-12-05T00:46:23.119Z,1014.55
2022-12-05T00:46:53.782Z,1014.58
2022-12-05T00:47:24.311Z,1014.59
2022-12-05T00:47:54.878Z,1014.61
2022-12-05T00:48:25.474Z,1014.63
2022-12-05T00:48:56.041Z,1014.64
2022-12-05T00:49:26.606Z,1014.65
2022-12-05T00:49:57.388Z,1014.67
2022-12-05T00:50:28.060Z,1014.69
2022-12-05T00:50:58.652Z,1014.72
2022-12-05T00:51:29.254Z,1014.72
2022-12-05T00:51:59.797Z,1014.72
2022-12-05T00:52:30.349Z,1014.73
2022-12-05T00:53:00.919Z,1014.73
2022-12-05T00:53:31.486Z,1014.74
2022-12-05T00:54:02.066Z,1014.74
2022-12-05T00:54:32.626Z,1014.75
2022-12-05T00:55:03.193Z,1014.76
2022-12-05T00:55:33.778Z,1014.79
2022-12-05T00:56:04.328Z,1014.82
2022-12-05T00:56:34.907Z,1014.85
2022-12-05T00:57:05.477Z,1014.87
2022-12-05T00:57:36.062Z,1014.90
2022-12-05T00:58:06.650Z,1014.92
2022-12-05T00:58:37.231Z,1014.94
2022-12-05T00:59:07.800Z,1014.97
2022-12-05T00:59:38.370Z,1014.99
2022-12-05T01:00:08.981Z,1015.04
2022-12-05T01:00:39.552Z,1015.07
2022-12-05T01:01:10.216Z,1015.10
2022-12-05T01:01:40.880Z,1015.12
2022-12-05T01:02:11.513Z,1015.16
2022-12-05T01:02:42.073Z,1015.19
2022-12-05T01:03:12.767Z,1015.21
2022-12-05T01:03:43.386Z,1015.24
2022-12-05T01:04:13.980Z,1015.26
2022-12-05T01:04:44.549Z,1015.27
2022-12-05T01:05:15.142Z,1015.27
2022-12-05T01:05:45.755Z,1015.27
2022-12-05T01:06:16.304Z,1015.27
2022-12-05T01:06:46.885Z,1015.26
2022-12-05T01:07:17.473Z,1015.26
2022-12-05T01:07:48.118Z,1015.25
2022-12-05T01:08:18.780Z,1015.24
2022-12-05T01:08:49.368Z,1015.23
2022-12-05T01:09:19.948Z,1015.22
2022-12-05T01:09:50.528Z,1015.20
2022-12-05T01:10:21.099Z,1015.18
2022-12-05T01:10:51.673Z,1015.17
2022-12-05T01:11:22.246Z,1015.16
2022-12-05T01:11:52.830Z,1015.15
2022-12-05T01:12:23.399Z,1015.15
2022-12-05T01:12:53.960Z,1015.16
2022-12-05T01:13:24.552Z,1015.19
2022-12-05T01:13:55.126Z,1015.24
2022-12-05T01:14:25.687Z,1015.27
2022-12-05T01:14:56.265Z,1015.30
2022-12-05T01:15:26.837Z,1015.32
2022-12-05T01:15:57.394Z,1015.31
2022-12-05T01:16:27.974Z,1015.30
2022-12-05T01:16:58.639Z,1015.30
2022-12-05T01:17:29.242Z,1015.26
2022-12-05T01:17:59.803Z,1015.25
2022-12-05T01:18:30.351Z,1015.23
2022-12-05T01:19:00.894Z,1015.22
2022-12-05T01:19:31.489Z,1015.22
2022-12-05T01:20:02.063Z,1015.22
2022-12-05T01:20:32.636Z,1015.23
2022-12-05T01:21:03.224Z,1015.25
2022-12-05T01:21:33.796Z,1015.27
2022-12-05T01:22:04.378Z,1015.29
2022-12-05T01:22:34.943Z,1015.29
2022-12-05T01:23:05.545Z,1015.29
2022-12-05T01:23:36.096Z,1015.29
2022-12-05T01:24:06.661Z,1015.31
2022-12-05T01:24:37.225Z,1015.34
2022-12-05T01:25:07.782Z,1015.39
2022-12-05T01:25:38.343Z,1015.42
2022-12-05T01:26:08.922Z,1015.48
2022-12-05T01:26:39.522Z,1015.52
2022-12-05T01:27:10.082Z,1015.55
2022-12-05T01:27:40.648Z,1015.58
2022-12-05T01:28:11.262Z,1015.60
2022-12-05T01:28:41.985Z,1015.62
2022-12-05T01:29:12.617Z,1015.64
2022-12-05T01:29:43.200Z,1015.67
2022-12-05T01:30:13.766Z,1015.69
2022-12-05T01:30:44.330Z,1015.71
2022-12-05T01:31:14.990Z,1015.70
2022-12-05T01:31:45.671Z,1015.72
2022-12-05T01:32:16.375Z,1015.72
2022-12-05T01:32:46.983Z,1015.73
2022-12-05T01:33:17.560Z,1015.75
2022-12-05T01:33:48.119Z,1015.77
2022-12-05T01:34:18.693Z,1015.78
2022-12-05T01:34:49.258Z,1015.80
2022-12-05T01:35:19.803Z,1015.82
2022-12-05T01:35:50.353Z,1015.81
2022-12-05T01:36:20.939Z,1015.83
2022-12-05T01:36:51.499Z,1015.82
2022-12-05T01:37:22.046Z,1015.79
2022-12-05T01:37:52.632Z,1015.76
2022-12-05T01:38:23.198Z,1015.70
2022-12-05T01:38:53.810Z,1015.66
2022-12-05T01:39:24.377Z,1015.63
2022-12-05T01:39:55.383Z,1015.59
2022-12-05T01:40:25.687Z,1015.56
2022-12-05T01:40:56.263Z,1015.56
2022-12-05T01:41:26.830Z,1015.55
2022-12-05T01:41:57.409Z,1015.57
2022-12-05T01:42:27.967Z,1015.59
2022-12-05T01:42:58.535Z,1015.61
2022-12-05T01:43:29.110Z,1015.64
2022-12-05T01:43:59.708Z,1015.66
2022-12-05T01:44:30.266Z,1015.68
2022-12-05T01:45:00.846Z,1015.71
2022-12-05T01:45:31.474Z,1015.75
2022-12-05T01:46:02.125Z,1015.78
2022-12-05T01:46:32.843Z,1015.81
2022-12-05T01:47:03.426Z,1015.85
2022-12-05T01:47:34.003Z,1015.89
2022-12-05T01:48:04.611Z,1015.90
2022-12-05T01:48:35.143Z,1015.88
2022-12-05T01:49:05.780Z,1015.89
2022-12-05T01:49:36.337Z,1015.91
2022-12-05T01:50:06.898Z,1015.88
2022-12-05T01:50:37.484Z,1015.88
2022-12-05T01:51:08.071Z,1015.88
2022-12-05T01:51:38.623Z,1015.81
2022-12-05T01:52:09.167Z,1015.80
2022-12-05T01:52:39.701Z,1015.79
2022-12-05T01:53:10.236Z,1015.77
2022-12-05T01:53:40.805Z,1015.79
2022-12-05T01:54:11.406Z,1015.79
2022-12-05T01:54:41.970Z,1015.79
2022-12-05T01:55:12.531Z,1015.80
2022-12-05T01:55:43.134Z,1015.79
2022-12-05T01:56:13.690Z,1015.80
2022-12-05T01:56:44.284Z,1015.80
2022-12-05T01:57:14.881Z,1015.80
2022-12-05T01:57:45.445Z,1015.79
2022-12-05T01:58:16.023Z,1015.80
2022-12-05T01:58:46.596Z,1015.79
2022-12-05T01:59:17.143Z,1015.79
2022-12-05T01:59:47.723Z,1015.84
2022-12-05T02:00:18.259Z,1015.91
2022-12-05T02:00:48.872Z,1015.96
2022-12-05T02:01:19.573Z,1016.03
2022-12-05T02:01:50.263Z,1016.10
2022-12-05T02:02:20.921Z,1016.12
2022-12-05T02:02:51.726Z,1016.14
2022-12-05T02:03:22.377Z,1016.16
2022-12-05T02:03:52.920Z,1016.16
2022-12-05T02:04:23.504Z,1016.15
2022-12-05T02:04:54.101Z,1016.14
2022-12-05T02:05:24.718Z,1016.12
2022-12-05T02:05:55.289Z,1016.13
2022-12-05T02:06:25.861Z,1016.13
2022-12-05T02:06:56.416Z,1016.14
2022-12-05T02:07:27.003Z,1016.15
2022-12-05T02:07:57.646Z,1016.15
2022-12-05T02:08:28.200Z,1016.15
2022-12-05T02:08:58.747Z,1016.15
2022-12-05T02:09:29.309Z,1016.15
2022-12-05T02:10:00.186Z,1016.16
2022-12-05T02:10:30.847Z,1016.17
2022-12-05T02:11:01.446Z,1016.20
2022-12-05T02:11:32.020Z,1016.21
2022-12-05T02:12:02.604Z,1016.21
2022-12-05T02:12:33.174Z,1016.27
2022-12-05T02:13:03.753Z,1016.24
2022-12-05T02:13:34.313Z,1016.26
2022-12-05T02:14:04.865Z,1016.21
2022-12-05T02:14:35.463Z,1016.17
2022-12-05T02:15:06.036Z,1016.13
2022-12-05T02:15:36.635Z,1016.11
2022-12-05T02:16:07.217Z,1016.08
2022-12-05T02:16:37.863Z,1016.05
2022-12-05T02:17:08.451Z,1016.04
2022-12-05T02:17:38.980Z,1016.03
2022-12-05T02:18:09.544Z,1016.06
2022-12-05T02:18:40.143Z,1016.10
2022-12-05T02:19:10.699Z,1016.16
2022-12-05T02:19:41.276Z,1016.22
2022-12-05T02:20:11.818Z,1016.29
2022-12-05T02:20:42.398Z,1016.35
2022-12-05T02:21:12.978Z,1016.35
2022-12-05T02:21:43.555Z,1016.37
2022-12-05T02:22:14.125Z,1016.34
2022-12-05T02:22:44.724Z,1016.31
2022-12-05T02:23:15.290Z,1016.31
2022-12-05T02:23:45.853Z,1016.28
2022-12-05T02:24:16.445Z,1016.30
2022-12-05T02:24:47.004Z,1016.29
2022-12-05T02:25:17.586Z,1016.30
2022-12-05T02:25:48.162Z,1016.29
2022-12-05T02:26:18.733Z,1016.30
2022-12-05T02:26:49.317Z,1016.23
2022-12-05T02:27:19.905Z,1016.25
2022-12-05T02:27:50.486Z,1016.24
2022-12-05T02:28:21.134Z,1016.21
2022-12-05T02:28:51.676Z,1016.24
2022-12-05T02:29:22.231Z,1016.29
2022-12-05T02:29:52.797Z,1016.30
2022-12-05T02:30:23.359Z,1016.33
2022-12-05T02:30:53.900Z,1016.33
2022-12-05T02:31:24.556Z,1016.31
2022-12-05T02:31:55.247Z,1016.30
2022-12-05T02:32:25.819Z,1016.25
2022-12-05T02:32:56.382Z,1016.22
2022-12-05T02:33:26.964Z,1016.23
2022-12-05T02:33:57.589Z,1016.26
2022-12-05T02:34:28.150Z,1016.28
2022-12-05T02:34:58.754Z,1016.32
2022-12-05T02:35:29.319Z,1016.36
2022-12-05T02:35:59.878Z,1016.37
2022-12-05T02:36:30.495Z,1016.38
2022-12-05T02:37:01.056Z,1016.39
2022-12-05T02:37:31.642Z,1016.42
2022-12-05T02:38:02.237Z,1016.44
2022-12-05T02:38:32.822Z,1016.44
2022-12-05T02:39:03.380Z,1016.46
2022-12-05T02:39:33.926Z,1016.49
2022-12-05T02:40:04.535Z,1016.47
2022-12-05T02:40:35.088Z,1016.48
2022-12-05T02:41:05.657Z,1016.46
2022-12-05T02:41:36.226Z,1016.45
2022-12-05T02:42:06.777Z,1016.43
2022-12-05T02:42:37.352Z,1016.43
2022-12-05T02:43:07.934Z,1016.42
2022-12-05T02:43:38.489Z,1016.40
2022-12-05T02:44:09.074Z,1016.40
2022-12-05T02:44:39.652Z,1016.36
2022-12-05T02:45:10.184Z,1016.35
2022-12-05T02:45:40.836Z,1016.35
2022-12-05T02:46:11.472Z,1016.35
2022-12-05T02:46:42.035Z,1016.34
2022-12-05T02:47:12.611Z,1016.33
2022-12-05T02:47:43.200Z,1016.32
2022-12-05T02:48:13.822Z,1016.32
2022-12-05T02:48:44.402Z,1016.32
2022-12-05T02:49:15.012Z,1016.32
2022-12-05T02:49:45.563Z,1016.33
2022-12-05T02:50:16.119Z,1016.34
2022-12-05T02:50:46.664Z,1016.33
2022-12-05T02:51:17.246Z,1016.34
2022-12-05T02:51:47.822Z,1016.36
2022-12-05T02:52:18.362Z,1016.37
2022-12-05T02:52:48.939Z,1016.40
2022-12-05T02:53:19.544Z,1016.39
2022-12-05T02:53:50.100Z,1016.38
2022-12-05T02:54:20.662Z,1016.40
2022-12-05T02:54:51.222Z,1016.42
2022-12-05T02:55:21.790Z,1016.41
2022-12-05T02:55:52.378Z,1016.40
2022-12-05T02:56:22.952Z,1016.38
2022-12-05T02:56:53.508Z,1016.39
2022-12-05T02:57:24.033Z,1016.38
2022-12-05T02:57:54.596Z,1016.38
2022-12-05T02:58:25.161Z,1016.44
2022-12-05T02:58:55.740Z,1016.41
2022-12-05T02:59:26.299Z,1016.40
2022-12-05T02:59:57.086Z,1016.39
2022-12-05T03:00:27.866Z,1016.43
2022-12-05T03:00:58.453Z,1016.42
2022-12-05T03:01:29.104Z,1016.44
2022-12-05T03:01:59.718Z,1016.45
2022-12-05T03:02:30.283Z,1016.44
2022-12-05T03:03:00.852Z,1016.45
2022-12-05T03:03:31.434Z,1016.46
2022-12-05T03:04:02.117Z,1016.46
2022-12-05T03:04:32.754Z,1016.46
2022-12-05T03:05:03.377Z,1016.49
2022-12-05T03:05:33.970Z,1016.49
2022-12-05T03:06:04.540Z,1016.52
2022-12-05T03:06:35.092Z,1016.53
2022-12-05T03:07:05.670Z,1016.54
2022-12-05T03:07:36.277Z,1016.57
2022-12-05T03:08:06.956Z,1016.58
2022-12-05T03:08:37.528Z,1016.61
2022-12-05T03:09:08.087Z,1016.61
2022-12-05T03:09:38.662Z,1016.61
2022-12-05T03:10:09.224Z,1016.62
2022-12-05T03:10:39.788Z,1016.62
2022-12-05T03:11:10.356Z,1016.62
2022-12-05T03:11:40.923Z,1016.61
2022-12-05T03:12:11.483Z,1016.60
2022-12-05T03:12:42.058Z,1016.58
2022-12-05T03:13:12.620Z,1016.57
2022-12-05T03:13:43.184Z,1016.58
2022-12-05T03:14:13.748Z,1016.55
2022-12-05T03:14:44.327Z,1016.52
2022-12-05T03:15:14.905Z,1016.51
2022-12-05T03:15:45.483Z,1016.52
2022-12-05T03:16:16.127Z,1016.51
2022-12-05T03:16:46.745Z,1016.49
2022-12-05T03:17:17.369Z,1016.54
2022-12-05T03:17:47.950Z,1016.46
2022-12-05T03:18:18.517Z,1016.45
2022-12-05T03:18:49.108Z,1016.47
2022-12-05T03:19:19.643Z,1016.47
2022-12-05T03:19:50.232Z,1016.46
2022-12-05T03:20:20.782Z,1016.45
2022-12-05T03:20:51.378Z,1016.48
2022-12-05T03:21:21.921Z,1016.48
2022-12-05T03:21:52.472Z,1016.49
2022-12-05T03:22:23.049Z,1016.53
2022-12-05T03:22:53.615Z,1016.56
2022-12-05T03:23:24.189Z,1016.59
2022-12-05T03:23:54.781Z,1016.63
2022-12-05T03:24:25.723Z,1016.67
2022-12-05T03:24:56.282Z,1016.69
2022-12-05T03:25:26.858Z,1016.70
2022-12-05T03:25:57.418Z,1016.72
2022-12-05T03:26:27.992Z,1016.73
2022-12-05T03:26:58.568Z,1016.72
2022-12-05T03:27:29.143Z,1016.74
2022-12-05T03:27:59.725Z,1016.74
2022-12-05T03:28:30.252Z,1016.71
2022-12-05T03:29:00.823Z,1016.72
2022-12-05T03:29:31.358Z,1016.70
2022-12-05T03:30:02.154Z,1016.69
2022-12-05T03:30:32.857Z,1016.67
2022-12-05T03:31:03.564Z,1016.65
2022-12-05T03:31:34.123Z,1016.64
2022-12-05T03:32:04.690Z,1016.65
2022-12-05T03:32:35.263Z,1016.66
2022-12-05T03:33:05.855Z,1016.68
2022-12-05T03:33:36.422Z,1016.70
2022-12-05T03:34:06.975Z,1016.75
2022-12-05T03:34:37.560Z,1016.74
2022-12-05T03:35:08.204Z,1016.76
2022-12-05T03:35:38.760Z,1016.79
2022-12-05T03:36:09.307Z,1016.83
2022-12-05T03:36:39.903Z,1016.85
2022-12-05T03:37:10.485Z,1016.88
2022-12-05T03:37:41.062Z,1016.89
2022-12-05T03:38:11.663Z,1016.87
2022-12-05T03:38:42.207Z,1016.86
2022-12-05T03:39:12.781Z,1016.82
2022-12-05T03:39:43.344Z,1016.80
2022-12-05T03:40:13.904Z,1016.80
2022-12-05T03:40:44.471Z,1016.78
2022-12-05T03:41:15.066Z,1016.75
2022-12-05T03:41:45.659Z,1016.76
2022-12-05T03:42:16.212Z,1016.76
2022-12-05T03:42:46.797Z,1016.75
2022-12-05T03:43:17.375Z,1016.76
2022-12-05T03:43:47.940Z,1016.77
2022-12-05T03:44:18.496Z,1016.81
2022-12-05T03:44:49.085Z,1016.83
2022-12-05T03:45:19.672Z,1016.85
2022-12-05T03:45:50.464Z,1016.85
2022-12-05T03:46:21.157Z,1016.86
2022-12-05T03:46:51.723Z,1016.87
2022-12-05T03:47:22.304Z,1016.85
2022-12-05T03:47:52.910Z,1016.84
2022-12-05T03:48:23.470Z,1016.82
2022-12-05T03:48:54.056Z,1016.82
2022-12-05T03:49:26.958Z,1016.81
2022-12-05T03:49:55.738Z,1016.81
2022-12-05T03:50:26.057Z,1016.81
2022-12-05T03:50:56.600Z,1016.83
2022-12-05T03:51:27.158Z,1016.84
2022-12-05T03:51:57.731Z,1016.84
2022-12-05T03:52:28.316Z,1016.84
2022-12-05T03:53:19.184Z,1016.84
2022-12-05T03:53:29.680Z,1016.85
2022-12-05T03:54:00.272Z,1016.84
2022-12-05T03:54:30.841Z,1016.84
2022-12-05T03:55:01.428Z,1016.83
2022-12-05T03:55:32.006Z,1016.82
2022-12-05T03:56:02.570Z,1016.82
2022-12-05T03:56:33.160Z,1016.83
2022-12-05T03:57:03.719Z,1016.84
2022-12-05T03:57:34.304Z,1016.84
2022-12-05T03:58:04.890Z,1016.85
2022-12-05T03:58:35.448Z,1016.85
2022-12-05T03:59:06.001Z,1016.85
2022-12-05T03:59:36.561Z,1016.86
2022-12-05T04:00:07.100Z,1016.85
2022-12-05T04:00:37.636Z,1016.84
2022-12-05T04:01:08.233Z,1016.83
2022-12-05T04:01:38.893Z,1016.83
2022-12-05T04:02:09.462Z,1016.82
2022-12-05T04:02:40.025Z,1016.81
2022-12-05T04:03:10.657Z,1016.82
2022-12-05T04:03:41.321Z,1016.83
2022-12-05T04:04:11.922Z,1016.84
2022-12-05T04:04:42.492Z,1016.85
2022-12-05T04:05:13.048Z,1016.86
2022-12-05T04:05:43.652Z,1016.86
2022-12-05T04:06:14.210Z,1016.85
2022-12-05T04:06:44.759Z,1016.84
2022-12-05T04:07:15.443Z,1016.83
2022-12-05T04:07:46.129Z,1016.82
2022-12-05T04:08:16.776Z,1016.81
2022-12-05T04:08:47.360Z,1016.80
2022-12-05T04:09:17.949Z,1016.80
2022-12-05T04:09:48.528Z,1016.81
2022-12-05T04:10:19.127Z,1016.81
2022-12-05T04:10:49.695Z,1016.81
2022-12-05T04:11:19.439Z,1016.80
2022-12-05T04:11:51.066Z,1016.80
2022-12-05T04:12:21.650Z,1016.81
2022-12-05T04:12:52.226Z,1016.80
2022-12-05T04:13:22.794Z,1016.79
2022-12-05T04:13:53.353Z,1016.78
2022-12-05T04:14:23.917Z,1016.78
2022-12-05T04:14:54.493Z,1016.79
2022-12-05T04:15:25.069Z,1016.80
2022-12-05T04:15:55.730Z,1016.80
2022-12-05T04:16:26.387Z,1016.79
2022-12-05T04:16:56.968Z,1016.79
2022-12-05T04:17:27.532Z,1016.79
2022-12-05T04:17:58.110Z,1016.79
2022-12-05T04:18:28.688Z,1016.80
2022-12-05T04:18:59.265Z,1016.80
2022-12-05T04:19:29.851Z,1016.80
2022-12-05T04:20:00.739Z,1016.81
2022-12-05T04:20:31.465Z,1016.83
2022-12-05T04:21:02.065Z,1016.83
2022-12-05T04:21:32.633Z,1016.83
2022-12-05T04:22:03.208Z,1016.83
2022-12-05T04:22:33.785Z,1016.82
2022-12-05T04:23:04.343Z,1016.82
2022-12-05T04:23:34.939Z,1016.81
2022-12-05T04:24:05.492Z,1016.80
2022-12-05T04:24:36.069Z,1016.80
2022-12-05T04:25:06.637Z,1016.80
2022-12-05T04:25:37.234Z,1016.80
2022-12-05T04:26:08.039Z,1016.80
2022-12-05T04:26:38.618Z,1016.80
2022-12-05T04:27:09.175Z,1016.80
2022-12-05T04:27:39.753Z,1016.81
2022-12-05T04:28:10.327Z,1016.82
2022-12-05T04:28:40.958Z,1016.82
2022-12-05T04:29:11.484Z,1016.83
2022-12-05T04:29:42.090Z,1016.82
2022-12-05T04:30:12.664Z,1016.83
2022-12-05T04:30:43.372Z,1016.84
2022-12-05T04:31:14.055Z,1016.85
2022-12-05T04:31:44.659Z,1016.86
2022-12-05T04:32:15.235Z,1016.86
2022-12-05T04:32:45.804Z,1016.87
2022-12-05T04:33:16.379Z,1016.87
2022-12-05T04:33:46.929Z,1016.88
2022-12-05T04:34:17.522Z,1016.88
2022-12-05T04:34:48.095Z,1016.87
2022-12-05T04:35:18.624Z,1016.87
2022-12-05T04:35:49.207Z,1016.87
2022-12-05T04:36:19.831Z,1016.86
2022-12-05T04:36:50.387Z,1016.85
2022-12-05T04:37:20.965Z,1016.84
2022-12-05T04:37:51.529Z,1016.83
2022-12-05T04:38:22.109Z,1016.82
2022-12-05T04:38:52.696Z,1016.82
2022-12-05T04:39:23.270Z,1016.82
2022-12-05T04:39:53.793Z,1016.82
2022-12-05T04:40:24.408Z,1016.83
2022-12-05T04:40:55.001Z,1016.83
2022-12-05T04:41:25.570Z,1016.83
2022-12-05T04:41:56.110Z,1016.83
2022-12-05T04:42:26.680Z,1016.84
2022-12-05T04:42:57.718Z,1016.86
2022-12-05T04:43:27.788Z,1016.86
2022-12-05T04:43:58.368Z,1016.86
2022-12-05T04:44:28.932Z,1016.85
2022-12-05T04:44:59.533Z,1016.84
2022-12-05T04:45:30.130Z,1016.84
2022-12-05T04:46:00.687Z,1016.83
2022-12-05T04:46:31.376Z,1016.81
2022-12-05T04:47:01.979Z,1016.80
2022-12-05T04:47:32.539Z,1016.78
2022-12-05T04:48:03.104Z,1016.77
2022-12-05T04:48:33.692Z,1016.78
2022-12-05T04:49:04.280Z,1016.78
2022-12-05T04:49:34.848Z,1016.78
2022-12-05T04:50:05.422Z,1016.80
2022-12-05T04:50:35.983Z,1016.81
2022-12-05T04:51:06.544Z,1016.83
2022-12-05T04:51:37.135Z,1016.84
2022-12-05T04:52:07.689Z,1016.86
2022-12-05T04:52:38.250Z,1016.87
2022-12-05T04:53:08.815Z,1016.89
2022-12-05T04:53:39.368Z,1016.90
2022-12-05T04:54:09.933Z,1016.91
2022-12-05T04:54:40.502Z,1016.92
2022-12-05T04:55:11.093Z,1016.93
2022-12-05T04:55:41.666Z,1016.93
2022-12-05T04:56:12.232Z,1016.91
2022-12-05T04:56:42.798Z,1016.90
2022-12-05T04:57:13.378Z,1016.89
2022-12-05T04:57:43.970Z,1016.87
2022-12-05T04:58:14.526Z,1016.87
2022-12-05T04:58:45.059Z,1016.86
2022-12-05T04:59:15.645Z,1016.85
2022-12-05T04:59:46.228Z,1016.84
2022-12-05T05:00:16.794Z,1016.82
2022-12-05T05:00:47.400Z,1016.81
2022-12-05T05:01:18.019Z,1016.81
2022-12-05T05:01:48.749Z,1016.82
2022-12-05T05:02:19.317Z,1016.82
2022-12-05T05:02:49.954Z,1016.82
2022-12-05T05:03:20.594Z,1016.82
2022-12-05T05:03:51.166Z,1016.82
2022-12-05T05:04:21.741Z,1016.82
2022-12-05T05:04:52.325Z,1016.82
2022-12-05T05:05:22.907Z,1016.83
2022-12-05T05:05:53.472Z,1016.84
2022-12-05T05:06:24.080Z,1016.84
2022-12-05T05:06:54.704Z,1016.84
2022-12-05T05:07:25.236Z,1016.85
2022-12-05T05:07:55.830Z,1016.85
2022-12-05T05:08:26.396Z,1016.85
2022-12-05T05:08:56.937Z,1016.86
2022-12-05T05:09:27.511Z,1016.87
2022-12-05T05:09:58.470Z,1016.89
2022-12-05T05:10:28.710Z,1016.90
2022-12-05T05:10:59.317Z,1016.92
2022-12-05T05:11:29.915Z,1016.93
2022-12-05T05:12:00.477Z,1016.94
2022-12-05T05:12:31.049Z,1016.95
2022-12-05T05:13:01.610Z,1016.96
2022-12-05T05:13:32.163Z,1016.97
2022-12-05T05:14:02.750Z,1016.98
2022-12-05T05:14:33.326Z,1016.98
2022-12-05T05:15:03.884Z,1016.99
2022-12-05T05:15:34.668Z,1016.99
2022-12-05T05:16:05.386Z,1017.00
2022-12-05T05:16:35.969Z,1017.01
2022-12-05T05:17:06.545Z,1017.02
2022-12-05T05:17:37.104Z,1017.02
2022-12-05T05:18:07.668Z,1017.01
2022-12-05T05:18:38.247Z,1017.01
2022-12-05T05:19:08.822Z,1017.02
2022-12-05T05:19:39.383Z,1017.03
2022-12-05T05:20:09.940Z,1017.04
2022-12-05T05:20:40.530Z,1017.05
2022-12-05T05:21:11.088Z,1017.05
2022-12-05T05:21:41.683Z,1017.05
2022-12-05T05:22:12.306Z,1017.05
2022-12-05T05:22:42.869Z,1017.04
2022-12-05T05:23:13.452Z,1017.03
2022-12-05T05:23:44.035Z,1017.01
2022-12-05T05:24:14.603Z,1017.00
2022-12-05T05:24:45.212Z,1016.99
2022-12-05T05:25:15.747Z,1016.97
2022-12-05T05:25:46.316Z,1016.95
2022-12-05T05:26:16.881Z,1016.94
2022-12-05T05:26:51.193Z,1016.93
2022-12-05T05:27:18.262Z,1016.91
2022-12-05T05:27:48.857Z,1016.89
2022-12-05T05:28:19.390Z,1016.89
2022-12-05T05:28:49.927Z,1016.88
2022-12-05T05:29:20.493Z,1016.87
2022-12-05T05:29:51.036Z,1016.87
2022-12-05T05:30:21.615Z,1016.86
2022-12-05T05:30:52.188Z,1016.86
2022-12-05T05:31:22.814Z,1016.87
2022-12-05T05:31:53.446Z,1016.87
2022-12-05T05:32:24.024Z,1016.86
2022-12-05T05:32:54.762Z,1016.84
2022-12-05T05:33:25.468Z,1016.82
2022-12-05T05:33:57.042Z,1016.80
2022-12-05T05:34:27.070Z,1016.79
2022-12-05T05:34:57.865Z,1016.79
2022-12-05T05:35:28.695Z,1016.79
2022-12-05T05:35:59.275Z,1016.80
2022-12-05T05:36:29.827Z,1016.81
2022-12-05T05:37:00.386Z,1016.82
2022-12-05T05:37:30.973Z,1016.84
2022-12-05T05:38:01.550Z,1016.86
2022-12-05T05:38:32.106Z,1016.88
2022-12-05T05:39:02.672Z,1016.90
2022-12-05T05:39:33.220Z,1016.91
2022-12-05T05:40:09.289Z,1016.90
2022-12-05T05:40:34.545Z,1016.90
2022-12-05T05:41:05.103Z,1016.89
2022-12-05T05:41:35.652Z,1016.90
2022-12-05T05:42:06.269Z,1016.90
2022-12-05T05:42:36.843Z,1016.90
2022-12-05T05:43:07.399Z,1016.91
2022-12-05T05:43:37.957Z,1016.92
2022-12-05T05:44:08.529Z,1016.94
2022-12-05T05:44:39.095Z,1016.96
2022-12-05T05:45:09.677Z,1016.96
2022-12-05T05:45:40.255Z,1016.97
2022-12-05T05:46:10.890Z,1016.99
2022-12-05T05:46:41.574Z,1017.01
2022-12-05T05:47:12.201Z,1017.02
2022-12-05T05:47:42.769Z,1017.04
2022-12-05T05:48:13.355Z,1017.05
2022-12-05T05:48:43.943Z,1017.06
2022-12-05T05:49:14.517Z,1017.06
2022-12-05T05:49:45.093Z,1017.07
2022-12-05T05:50:21.172Z,1017.07
2022-12-05T05:50:46.454Z,1017.06
2022-12-05T05:51:16.993Z,1017.06
2022-12-05T05:51:47.570Z,1017.07
2022-12-05T05:52:18.165Z,1017.07
2022-12-05T05:52:48.778Z,1017.09
2022-12-05T05:53:19.332Z,1017.11
2022-12-05T05:53:49.915Z,1017.13
2022-12-05T05:54:20.509Z,1017.16
2022-12-05T05:54:51.105Z,1017.18
2022-12-05T05:55:21.677Z,1017.20
2022-12-05T05:55:52.272Z,1017.21
2022-12-05T05:56:22.842Z,1017.22
2022-12-05T05:56:53.401Z,1017.23
2022-12-05T05:57:23.973Z,1017.23
2022-12-05T05:57:54.568Z,1017.22
2022-12-05T05:58:25.118Z,1017.22
2022-12-05T05:58:55.733Z,1017.22
2022-12-05T05:59:26.301Z,1017.21
2022-12-05T05:59:57.193Z,1017.19
2022-12-05T06:00:27.385Z,1017.19
2022-12-05T06:00:57.940Z,1017.18
2022-12-05T06:01:28.520Z,1017.18
2022-12-05T06:01:59.065Z,1017.19
2022-12-05T06:02:29.714Z,1017.19
2022-12-05T06:03:00.496Z,1017.20
2022-12-05T06:03:31.398Z,1017.21
2022-12-05T06:04:02.147Z,1017.21
2022-12-05T06:04:32.832Z,1017.22
2022-12-05T06:05:03.381Z,1017.23
2022-12-05T06:05:33.956Z,1017.24
2022-12-05T06:06:04.521Z,1017.25
2022-12-05T06:06:35.113Z,1017.26
2022-12-05T06:07:05.664Z,1017.27
2022-12-05T06:07:36.341Z,1017.27
2022-12-05T06:08:07.056Z,1017.28
2022-12-05T06:08:37.662Z,1017.29
2022-12-05T06:09:08.256Z,1017.29
2022-12-05T06:09:38.839Z,1017.29
2022-12-05T06:10:09.396Z,1017.30